sensor_id;sensor_type;location;lat;lon;timestamp;P1;durP1;ratioP1;P2;durP2;ratioP2
13461;SDS011;6803;45.264;5.468;2022-11-15T00:00:54;12.37;;;7.37;;
13461;SDS011;6803;45.264;5.468;2022-11-15T00:03:25;11.73;;;7.93;;
13461;SDS011;6803;45.264;5.468;2022-11-15T00:06:01;13.70;;;7.80;;
13461;SDS011;6803;45.264;5.468;2022-11-15T00:08:33;12.37;;;8.23;;
13461;SDS011;6803;45.264;5.468;2022-11-15T00:11:03;11.70;;;7.40;;
13461;SDS011;6803;45.264;5.468;2022-11-15T00:13:34;13.80;;;7.37;;
13461;SDS011;6803;45.264;5.468;2022-11-15T00:16:05;12.80;;;7.80;;
13461;SDS011;6803;45.264;5.468;2022-11-15T00:18:38;11.23;;;7.50;;
13461;SDS011;6803;45.264;5.468;2022-11-15T00:21:11;10.33;;;7.47;;
13461;SDS011;6803;45.264;5.468;2022-11-15T00:23:43;10.37;;;8.07;;
13461;SDS011;6803;45.264;5.468;2022-11-15T00:26:14;11.27;;;7.80;;
13461;SDS011;6803;45.264;5.468;2022-11-15T00:28:45;98.23;;;12.50;;
13461;SDS011;6803;45.264;5.468;2022-11-15T00:31:16;19.33;;;8.63;;
13461;SDS011;6803;45.264;5.468;2022-11-15T00:33:48;49.60;;;10.30;;
13461;SDS011;6803;45.264;5.468;2022-11-15T00:36:18;30.37;;;9.50;;
13461;SDS011;6803;45.264;5.468;2022-11-15T00:38:49;16.50;;;9.47;;
13461;SDS011;6803;45.264;5.468;2022-11-15T00:41:19;12.73;;;9.17;;
13461;SDS011;6803;45.264;5.468;2022-11-15T00:43:50;20.10;;;8.77;;
13461;SDS011;6803;45.264;5.468;2022-11-15T00:46:21;12.03;;;9.20;;
13461;SDS011;6803;45.264;5.468;2022-11-15T00:48:51;12.17;;;9.13;;
13461;SDS011;6803;45.264;5.468;2022-11-15T00:51:22;21.93;;;8.57;;
13461;SDS011;6803;45.264;5.468;2022-11-15T00:53:52;12.37;;;8.30;;
13461;SDS011;6803;45.264;5.468;2022-11-15T00:56:23;12.23;;;8.63;;
13461;SDS011;6803;45.264;5.468;2022-11-15T00:58:53;14.57;;;9.00;;
13461;SDS011;6803;45.264;5.468;2022-11-15T01:01:24;17.73;;;9.20;;
13461;SDS011;6803;45.264;5.468;2022-11-15T01:03:55;11.10;;;8.50;;
13461;SDS011;6803;45.264;5.468;2022-11-15T01:06:28;13.80;;;8.40;;
13461;SDS011;6803;45.264;5.468;2022-11-15T01:08:58;13.73;;;10.17;;
13461;SDS011;6803;45.264;5.468;2022-11-15T01:11:29;20.40;;;11.60;;
13461;SDS011;6803;45.264;5.468;2022-11-15T01:13:59;20.17;;;12.70;;
13461;SDS011;6803;45.264;5.468;2022-11-15T01:16:30;21.73;;;12.93;;
13461;SDS011;6803;45.264;5.468;2022-11-15T01:19:01;25.97;;;14.83;;
13461;SDS011;6803;45.264;5.468;2022-11-15T01:21:31;27.27;;;13.77;;
13461;SDS011;6803;45.264;5.468;2022-11-15T01:24:02;27.33;;;14.00;;
13461;SDS011;6803;45.264;5.468;2022-11-15T01:26:33;25.93;;;13.97;;
13461;SDS011;6803;45.264;5.468;2022-11-15T01:29:04;32.73;;;14.60;;
13461;SDS011;6803;45.264;5.468;2022-11-15T01:31:35;27.83;;;15.00;;
13461;SDS011;6803;45.264;5.468;2022-11-15T01:34:05;27.87;;;15.17;;
13461;SDS011;6803;45.264;5.468;2022-11-15T01:36:36;35.33;;;16.60;;
13461;SDS011;6803;45.264;5.468;2022-11-15T01:39:07;32.40;;;17.80;;
13461;SDS011;6803;45.264;5.468;2022-11-15T01:41:38;31.60;;;15.80;;
13461;SDS011;6803;45.264;5.468;2022-11-15T01:44:37;37.53;;;16.97;;
13461;SDS011;6803;45.264;5.468;2022-11-15T01:47:10;44.73;;;19.10;;
13461;SDS011;6803;45.264;5.468;2022-11-15T01:49:46;34.00;;;16.90;;
13461;SDS011;6803;45.264;5.468;2022-11-15T01:52:20;23.73;;;13.97;;
13461;SDS011;6803;45.264;5.468;2022-11-15T01:54:55;24.03;;;14.00;;
13461;SDS011;6803;45.264;5.468;2022-11-15T02:00:18;19.00;;;12.63;;
13461;SDS011;6803;45.264;5.468;2022-11-15T02:02:49;18.87;;;12.27;;
13461;SDS011;6803;45.264;5.468;2022-11-15T02:05:20;27.13;;;15.33;;
13461;SDS011;6803;45.264;5.468;2022-11-15T02:07:51;20.77;;;12.83;;
13461;SDS011;6803;45.264;5.468;2022-11-15T02:10:23;18.60;;;12.43;;
13461;SDS011;6803;45.264;5.468;2022-11-15T02:12:54;18.90;;;12.03;;
13461;SDS011;6803;45.264;5.468;2022-11-15T02:15:28;22.13;;;12.60;;
13461;SDS011;6803;45.264;5.468;2022-11-15T02:18:05;24.17;;;12.93;;
13461;SDS011;6803;45.264;5.468;2022-11-15T02:20:43;25.13;;;14.40;;
13461;SDS011;6803;45.264;5.468;2022-11-15T02:29:58;28.83;;;13.80;;
13461;SDS011;6803;45.264;5.468;2022-11-15T02:32:44;18.40;;;12.00;;
13461;SDS011;6803;45.264;5.468;2022-11-15T02:35:18;19.07;;;12.77;;
13461;SDS011;6803;45.264;5.468;2022-11-15T02:37:52;719.27;;;42.90;;
13461;SDS011;6803;45.264;5.468;2022-11-15T02:40:29;1008.00;;;64.80;;
13461;SDS011;6803;45.264;5.468;2022-11-15T02:43:04;1178.57;;;66.77;;
13461;SDS011;6803;45.264;5.468;2022-11-15T02:46:03;543.57;;;41.27;;
13461;SDS011;6803;45.264;5.468;2022-11-15T02:48:31;847.77;;;49.70;;
13461;SDS011;6803;45.264;5.468;2022-11-15T02:51:03;692.80;;;44.53;;
13461;SDS011;6803;45.264;5.468;2022-11-15T02:53:34;530.03;;;39.13;;
13461;SDS011;6803;45.264;5.468;2022-11-15T02:56:07;225.73;;;23.03;;
13461;SDS011;6803;45.264;5.468;2022-11-15T02:58:48;225.00;;;22.37;;
13461;SDS011;6803;45.264;5.468;2022-11-15T03:01:26;179.63;;;25.20;;
13461;SDS011;6803;45.264;5.468;2022-11-15T03:04:05;164.77;;;20.90;;
13461;SDS011;6803;45.264;5.468;2022-11-15T03:06:39;71.63;;;16.57;;
13461;SDS011;6803;45.264;5.468;2022-11-15T03:09:16;169.80;;;23.20;;
13461;SDS011;6803;45.264;5.468;2022-11-15T03:11:48;272.27;;;24.63;;
13461;SDS011;6803;45.264;5.468;2022-11-15T03:14:22;33.63;;;17.30;;
13461;SDS011;6803;45.264;5.468;2022-11-15T03:16:56;35.03;;;15.37;;
13461;SDS011;6803;45.264;5.468;2022-11-15T03:19:30;33.00;;;15.57;;
13461;SDS011;6803;45.264;5.468;2022-11-15T03:22:03;48.47;;;17.23;;
13461;SDS011;6803;45.264;5.468;2022-11-15T03:24:36;59.23;;;17.63;;
13461;SDS011;6803;45.264;5.468;2022-11-15T03:27:09;117.57;;;20.17;;
13461;SDS011;6803;45.264;5.468;2022-11-15T03:29:44;31.83;;;16.00;;
13461;SDS011;6803;45.264;5.468;2022-11-15T03:32:17;50.60;;;18.70;;
13461;SDS011;6803;45.264;5.468;2022-11-15T03:34:50;48.30;;;18.40;;
13461;SDS011;6803;45.264;5.468;2022-11-15T03:37:24;84.47;;;20.80;;
13461;SDS011;6803;45.264;5.468;2022-11-15T03:39:58;169.67;;;20.93;;
13461;SDS011;6803;45.264;5.468;2022-11-15T03:42:30;60.93;;;19.47;;
13461;SDS011;6803;45.264;5.468;2022-11-15T03:45:06;67.90;;;19.53;;
13461;SDS011;6803;45.264;5.468;2022-11-15T03:47:38;75.77;;;20.47;;
13461;SDS011;6803;45.264;5.468;2022-11-15T03:50:11;54.07;;;18.00;;
13461;SDS011;6803;45.264;5.468;2022-11-15T03:52:45;109.03;;;18.73;;
13461;SDS011;6803;45.264;5.468;2022-11-15T03:55:18;153.47;;;19.83;;
13461;SDS011;6803;45.264;5.468;2022-11-15T03:57:50;77.23;;;18.93;;
13461;SDS011;6803;45.264;5.468;2022-11-15T04:00:23;83.23;;;20.53;;
13461;SDS011;6803;45.264;5.468;2022-11-15T04:02:54;65.60;;;18.70;;
13461;SDS011;6803;45.264;5.468;2022-11-15T04:05:25;165.67;;;22.63;;
13461;SDS011;6803;45.264;5.468;2022-11-15T04:07:56;105.63;;;20.93;;
13461;SDS011;6803;45.264;5.468;2022-11-15T04:10:26;92.97;;;19.00;;
13461;SDS011;6803;45.264;5.468;2022-11-15T04:12:57;33.87;;;18.50;;
13461;SDS011;6803;45.264;5.468;2022-11-15T04:15:27;179.07;;;24.30;;
13461;SDS011;6803;45.264;5.468;2022-11-15T04:17:58;94.80;;;17.60;;
13461;SDS011;6803;45.264;5.468;2022-11-15T04:20:30;33.07;;;15.83;;
13461;SDS011;6803;45.264;5.468;2022-11-15T04:23:19;25.10;;;14.47;;
13461;SDS011;6803;45.264;5.468;2022-11-15T04:26:09;27.00;;;15.07;;
13461;SDS011;6803;45.264;5.468;2022-11-15T04:28:41;22.70;;;14.63;;
13461;SDS011;6803;45.264;5.468;2022-11-15T04:31:31;22.23;;;13.60;;
13461;SDS011;6803;45.264;5.468;2022-11-15T04:34:02;30.57;;;15.00;;
13461;SDS011;6803;45.264;5.468;2022-11-15T04:36:32;784.67;;;44.57;;
13461;SDS011;6803;45.264;5.468;2022-11-15T04:39:21;1014.60;;;53.73;;
13461;SDS011;6803;45.264;5.468;2022-11-15T04:41:51;1105.03;;;62.80;;
13461;SDS011;6803;45.264;5.468;2022-11-15T04:44:22;1054.07;;;55.50;;
13461;SDS011;6803;45.264;5.468;2022-11-15T04:46:52;747.27;;;38.27;;
13461;SDS011;6803;45.264;5.468;2022-11-15T04:49:23;254.97;;;25.27;;
13461;SDS011;6803;45.264;5.468;2022-11-15T04:51:54;418.23;;;31.63;;
13461;SDS011;6803;45.264;5.468;2022-11-15T04:54:24;48.23;;;15.83;;
13461;SDS011;6803;45.264;5.468;2022-11-15T04:56:55;111.60;;;17.87;;
13461;SDS011;6803;45.264;5.468;2022-11-15T04:59:25;159.87;;;18.97;;
13461;SDS011;6803;45.264;5.468;2022-11-15T05:01:56;81.93;;;16.77;;
13461;SDS011;6803;45.264;5.468;2022-11-15T05:04:27;43.63;;;14.47;;
13461;SDS011;6803;45.264;5.468;2022-11-15T05:06:57;56.17;;;15.90;;
13461;SDS011;6803;45.264;5.468;2022-11-15T05:09:28;33.60;;;13.33;;
13461;SDS011;6803;45.264;5.468;2022-11-15T05:11:59;22.63;;;12.70;;
13461;SDS011;6803;45.264;5.468;2022-11-15T05:17:04;22.37;;;13.23;;
13461;SDS011;6803;45.264;5.468;2022-11-15T05:19:35;62.93;;;15.37;;
13461;SDS011;6803;45.264;5.468;2022-11-15T05:24:44;59.90;;;16.67;;
13461;SDS011;6803;45.264;5.468;2022-11-15T05:27:15;28.80;;;14.97;;
13461;SDS011;6803;45.264;5.468;2022-11-15T05:29:46;39.63;;;15.40;;
13461;SDS011;6803;45.264;5.468;2022-11-15T05:32:16;158.60;;;22.17;;
13461;SDS011;6803;45.264;5.468;2022-11-15T05:34:48;25.80;;;14.17;;
13461;SDS011;6803;45.264;5.468;2022-11-15T05:37:19;18.30;;;13.17;;
13461;SDS011;6803;45.264;5.468;2022-11-15T05:39:49;21.03;;;12.77;;
13461;SDS011;6803;45.264;5.468;2022-11-15T05:42:20;22.97;;;13.13;;
13461;SDS011;6803;45.264;5.468;2022-11-15T05:44:51;21.60;;;11.83;;
13461;SDS011;6803;45.264;5.468;2022-11-15T05:47:22;24.40;;;13.90;;
13461;SDS011;6803;45.264;5.468;2022-11-15T05:49:55;23.53;;;13.27;;
13461;SDS011;6803;45.264;5.468;2022-11-15T05:52:27;53.70;;;15.20;;
13461;SDS011;6803;45.264;5.468;2022-11-15T05:57:38;76.77;;;15.97;;
13461;SDS011;6803;45.264;5.468;2022-11-15T06:02:59;51.23;;;15.03;;
13461;SDS011;6803;45.264;5.468;2022-11-15T06:05:29;22.70;;;12.83;;
13461;SDS011;6803;45.264;5.468;2022-11-15T06:08:00;29.13;;;13.27;;
13461;SDS011;6803;45.264;5.468;2022-11-15T06:13:20;18.13;;;11.47;;
13461;SDS011;6803;45.264;5.468;2022-11-15T06:15:50;21.10;;;12.10;;
13461;SDS011;6803;45.264;5.468;2022-11-15T06:18:22;15.80;;;9.73;;
13461;SDS011;6803;45.264;5.468;2022-11-15T06:20:53;15.33;;;9.73;;
13461;SDS011;6803;45.264;5.468;2022-11-15T06:23:32;32.60;;;11.80;;
13461;SDS011;6803;45.264;5.468;2022-11-15T06:26:04;19.10;;;10.70;;
13461;SDS011;6803;45.264;5.468;2022-11-15T06:28:34;18.93;;;11.33;;
13461;SDS011;6803;45.264;5.468;2022-11-15T06:31:05;22.10;;;11.93;;
13461;SDS011;6803;45.264;5.468;2022-11-15T06:33:38;17.87;;;10.57;;
13461;SDS011;6803;45.264;5.468;2022-11-15T06:36:11;17.67;;;11.23;;
13461;SDS011;6803;45.264;5.468;2022-11-15T06:38:44;21.20;;;11.70;;
13461;SDS011;6803;45.264;5.468;2022-11-15T06:41:15;67.60;;;14.30;;
13461;SDS011;6803;45.264;5.468;2022-11-15T06:43:46;14.80;;;10.40;;
13461;SDS011;6803;45.264;5.468;2022-11-15T06:46:17;15.10;;;9.67;;
13461;SDS011;6803;45.264;5.468;2022-11-15T06:48:47;17.47;;;11.63;;
13461;SDS011;6803;45.264;5.468;2022-11-15T06:51:19;18.07;;;10.60;;
13461;SDS011;6803;45.264;5.468;2022-11-15T06:53:49;17.53;;;10.73;;
13461;SDS011;6803;45.264;5.468;2022-11-15T06:56:20;15.87;;;9.53;;
13461;SDS011;6803;45.264;5.468;2022-11-15T06:58:51;20.70;;;11.30;;
13461;SDS011;6803;45.264;5.468;2022-11-15T07:01:21;22.17;;;11.97;;
13461;SDS011;6803;45.264;5.468;2022-11-15T07:03:52;18.43;;;11.30;;
13461;SDS011;6803;45.264;5.468;2022-11-15T07:06:22;16.73;;;10.63;;
13461;SDS011;6803;45.264;5.468;2022-11-15T07:08:53;17.37;;;10.83;;
13461;SDS011;6803;45.264;5.468;2022-11-15T07:11:24;19.33;;;11.50;;
13461;SDS011;6803;45.264;5.468;2022-11-15T07:13:54;22.10;;;12.57;;
13461;SDS011;6803;45.264;5.468;2022-11-15T07:16:25;18.23;;;11.27;;
13461;SDS011;6803;45.264;5.468;2022-11-15T07:18:55;16.10;;;10.70;;
13461;SDS011;6803;45.264;5.468;2022-11-15T07:21:26;20.73;;;11.60;;
13461;SDS011;6803;45.264;5.468;2022-11-15T07:23:57;17.00;;;10.73;;
13461;SDS011;6803;45.264;5.468;2022-11-15T07:26:27;15.73;;;10.27;;
13461;SDS011;6803;45.264;5.468;2022-11-15T07:28:58;16.70;;;10.77;;
13461;SDS011;6803;45.264;5.468;2022-11-15T07:31:29;15.10;;;10.63;;
13461;SDS011;6803;45.264;5.468;2022-11-15T07:34:00;17.97;;;11.00;;
13461;SDS011;6803;45.264;5.468;2022-11-15T07:36:31;14.60;;;9.87;;
13461;SDS011;6803;45.264;5.468;2022-11-15T07:39:01;12.13;;;9.33;;
13461;SDS011;6803;45.264;5.468;2022-11-15T07:41:32;18.00;;;10.33;;
13461;SDS011;6803;45.264;5.468;2022-11-15T07:44:03;15.13;;;10.63;;
13461;SDS011;6803;45.264;5.468;2022-11-15T07:46:34;19.43;;;10.77;;
13461;SDS011;6803;45.264;5.468;2022-11-15T07:49:04;20.80;;;11.20;;
13461;SDS011;6803;45.264;5.468;2022-11-15T07:51:35;14.23;;;10.20;;
13461;SDS011;6803;45.264;5.468;2022-11-15T07:54:06;13.93;;;10.37;;
13461;SDS011;6803;45.264;5.468;2022-11-15T07:56:36;13.80;;;9.93;;
13461;SDS011;6803;45.264;5.468;2022-11-15T07:59:07;18.23;;;10.60;;
13461;SDS011;6803;45.264;5.468;2022-11-15T08:01:37;17.00;;;10.80;;
13461;SDS011;6803;45.264;5.468;2022-11-15T08:04:09;17.37;;;10.83;;
13461;SDS011;6803;45.264;5.468;2022-11-15T08:06:40;18.93;;;10.80;;
13461;SDS011;6803;45.264;5.468;2022-11-15T08:09:11;15.73;;;10.80;;
13461;SDS011;6803;45.264;5.468;2022-11-15T08:11:41;15.27;;;10.63;;
13461;SDS011;6803;45.264;5.468;2022-11-15T08:14:12;21.10;;;10.77;;
13461;SDS011;6803;45.264;5.468;2022-11-15T08:16:43;17.93;;;10.67;;
13461;SDS011;6803;45.264;5.468;2022-11-15T08:19:13;14.57;;;10.60;;
13461;SDS011;6803;45.264;5.468;2022-11-15T08:21:44;18.97;;;10.30;;
13461;SDS011;6803;45.264;5.468;2022-11-15T08:24:15;13.87;;;9.90;;
13461;SDS011;6803;45.264;5.468;2022-11-15T08:26:45;16.20;;;10.43;;
13461;SDS011;6803;45.264;5.468;2022-11-15T08:29:16;14.63;;;9.60;;
13461;SDS011;6803;45.264;5.468;2022-11-15T08:31:47;14.37;;;9.70;;
13461;SDS011;6803;45.264;5.468;2022-11-15T08:34:18;25.80;;;11.73;;
13461;SDS011;6803;45.264;5.468;2022-11-15T08:36:48;17.17;;;10.90;;
13461;SDS011;6803;45.264;5.468;2022-11-15T08:39:19;14.03;;;10.73;;
13461;SDS011;6803;45.264;5.468;2022-11-15T08:41:49;17.30;;;11.20;;
13461;SDS011;6803;45.264;5.468;2022-11-15T08:44:20;12.73;;;9.83;;
13461;SDS011;6803;45.264;5.468;2022-11-15T08:46:51;16.70;;;11.00;;
13461;SDS011;6803;45.264;5.468;2022-11-15T08:49:22;14.47;;;10.37;;
13461;SDS011;6803;45.264;5.468;2022-11-15T08:51:52;16.73;;;11.13;;
13461;SDS011;6803;45.264;5.468;2022-11-15T08:54:23;15.07;;;9.97;;
13461;SDS011;6803;45.264;5.468;2022-11-15T08:56:53;14.27;;;9.80;;
13461;SDS011;6803;45.264;5.468;2022-11-15T08:59:24;16.27;;;9.90;;
13461;SDS011;6803;45.264;5.468;2022-11-15T09:01:55;15.33;;;9.80;;
13461;SDS011;6803;45.264;5.468;2022-11-15T09:04:26;12.97;;;9.43;;
13461;SDS011;6803;45.264;5.468;2022-11-15T09:06:56;11.70;;;8.43;;
13461;SDS011;6803;45.264;5.468;2022-11-15T09:09:27;10.63;;;8.33;;
13461;SDS011;6803;45.264;5.468;2022-11-15T09:11:57;11.53;;;7.77;;
13461;SDS011;6803;45.264;5.468;2022-11-15T09:14:29;12.33;;;7.33;;
13461;SDS011;6803;45.264;5.468;2022-11-15T09:17:00;11.20;;;7.67;;
13461;SDS011;6803;45.264;5.468;2022-11-15T09:19:31;9.50;;;7.30;;
13461;SDS011;6803;45.264;5.468;2022-11-15T09:22:01;9.07;;;6.50;;
13461;SDS011;6803;45.264;5.468;2022-11-15T09:24:35;9.07;;;6.87;;
13461;SDS011;6803;45.264;5.468;2022-11-15T09:27:06;8.00;;;6.90;;
13461;SDS011;6803;45.264;5.468;2022-11-15T09:29:37;11.70;;;6.40;;
13461;SDS011;6803;45.264;5.468;2022-11-15T09:32:07;10.07;;;7.50;;
13461;SDS011;6803;45.264;5.468;2022-11-15T09:34:38;13.67;;;7.87;;
13461;SDS011;6803;45.264;5.468;2022-11-15T09:37:09;12.70;;;8.00;;
13461;SDS011;6803;45.264;5.468;2022-11-15T09:39:40;11.27;;;9.37;;
13461;SDS011;6803;45.264;5.468;2022-11-15T09:42:16;10.60;;;8.50;;
13461;SDS011;6803;45.264;5.468;2022-11-15T09:44:55;12.03;;;9.00;;
13461;SDS011;6803;45.264;5.468;2022-11-15T09:47:40;8.00;;;7.20;;
13461;SDS011;6803;45.264;5.468;2022-11-15T09:50:18;6.87;;;6.17;;
13461;SDS011;6803;45.264;5.468;2022-11-15T09:52:51;9.50;;;6.83;;
13461;SDS011;6803;45.264;5.468;2022-11-15T09:55:21;10.23;;;6.97;;
13461;SDS011;6803;45.264;5.468;2022-11-15T09:57:55;7.43;;;6.63;;
13461;SDS011;6803;45.264;5.468;2022-11-15T10:00:29;8.53;;;6.17;;
13461;SDS011;6803;45.264;5.468;2022-11-15T10:03:11;9.43;;;6.90;;
13461;SDS011;6803;45.264;5.468;2022-11-15T10:05:44;9.07;;;6.37;;
13461;SDS011;6803;45.264;5.468;2022-11-15T10:11:19;10.60;;;6.33;;
13461;SDS011;6803;45.264;5.468;2022-11-15T10:13:53;7.13;;;6.03;;
13461;SDS011;6803;45.264;5.468;2022-11-15T10:16:36;9.53;;;6.70;;
13461;SDS011;6803;45.264;5.468;2022-11-15T10:19:14;7.77;;;6.30;;
13461;SDS011;6803;45.264;5.468;2022-11-15T10:21:49;9.63;;;6.50;;
13461;SDS011;6803;45.264;5.468;2022-11-15T10:24:23;7.93;;;6.33;;
13461;SDS011;6803;45.264;5.468;2022-11-15T10:26:57;8.83;;;6.70;;
13461;SDS011;6803;45.264;5.468;2022-11-15T10:29:27;6.83;;;6.03;;
13461;SDS011;6803;45.264;5.468;2022-11-15T10:31:58;9.47;;;6.07;;
13461;SDS011;6803;45.264;5.468;2022-11-15T10:34:29;6.53;;;5.83;;
13461;SDS011;6803;45.264;5.468;2022-11-15T10:37:01;9.20;;;6.30;;
13461;SDS011;6803;45.264;5.468;2022-11-15T10:39:31;10.63;;;6.47;;
13461;SDS011;6803;45.264;5.468;2022-11-15T10:42:15;6.77;;;5.73;;
13461;SDS011;6803;45.264;5.468;2022-11-15T10:44:48;6.17;;;5.43;;
13461;SDS011;6803;45.264;5.468;2022-11-15T10:50:01;8.80;;;5.90;;
13461;SDS011;6803;45.264;5.468;2022-11-15T10:52:36;7.33;;;5.93;;
13461;SDS011;6803;45.264;5.468;2022-11-15T10:55:21;7.53;;;5.60;;
13461;SDS011;6803;45.264;5.468;2022-11-15T10:57:58;6.17;;;5.57;;
13461;SDS011;6803;45.264;5.468;2022-11-15T11:00:32;8.17;;;6.07;;
13461;SDS011;6803;45.264;5.468;2022-11-15T11:03:06;8.27;;;5.07;;
13461;SDS011;6803;45.264;5.468;2022-11-15T11:05:51;6.13;;;5.23;;
13461;SDS011;6803;45.264;5.468;2022-11-15T11:08:33;6.30;;;5.20;;
13461;SDS011;6803;45.264;5.468;2022-11-15T11:11:04;7.23;;;5.27;;
13461;SDS011;6803;45.264;5.468;2022-11-15T11:13:37;7.70;;;5.40;;
13461;SDS011;6803;45.264;5.468;2022-11-15T11:16:23;5.97;;;5.33;;
13461;SDS011;6803;45.264;5.468;2022-11-15T11:19:20;8.73;;;6.20;;
13461;SDS011;6803;45.264;5.468;2022-11-15T11:22:05;6.93;;;5.27;;
13461;SDS011;6803;45.264;5.468;2022-11-15T11:24:39;6.33;;;5.73;;
13461;SDS011;6803;45.264;5.468;2022-11-15T11:27:16;8.97;;;5.67;;
13461;SDS011;6803;45.264;5.468;2022-11-15T11:29:56;7.67;;;5.10;;
13461;SDS011;6803;45.264;5.468;2022-11-15T11:35:37;6.50;;;5.43;;
13461;SDS011;6803;45.264;5.468;2022-11-15T11:38:15;7.73;;;5.47;;
13461;SDS011;6803;45.264;5.468;2022-11-15T11:40:54;6.10;;;5.50;;
13461;SDS011;6803;45.264;5.468;2022-11-15T11:43:29;7.90;;;5.67;;
13461;SDS011;6803;45.264;5.468;2022-11-15T11:46:04;7.87;;;5.20;;
13461;SDS011;6803;45.264;5.468;2022-11-15T11:48:43;8.00;;;5.57;;
13461;SDS011;6803;45.264;5.468;2022-11-15T11:51:18;8.00;;;5.47;;
13461;SDS011;6803;45.264;5.468;2022-11-15T11:53:53;7.67;;;5.80;;
13461;SDS011;6803;45.264;5.468;2022-11-15T11:56:26;6.77;;;5.63;;
13461;SDS011;6803;45.264;5.468;2022-11-15T11:59:00;7.63;;;5.67;;
13461;SDS011;6803;45.264;5.468;2022-11-15T12:01:34;6.70;;;6.10;;
13461;SDS011;6803;45.264;5.468;2022-11-15T12:04:11;6.73;;;5.97;;
13461;SDS011;6803;45.264;5.468;2022-11-15T12:06:46;8.97;;;6.50;;
13461;SDS011;6803;45.264;5.468;2022-11-15T12:09:21;11.13;;;6.93;;
13461;SDS011;6803;45.264;5.468;2022-11-15T12:11:57;19.53;;;7.83;;
13461;SDS011;6803;45.264;5.468;2022-11-15T12:14:31;11.67;;;7.73;;
13461;SDS011;6803;45.264;5.468;2022-11-15T12:17:04;8.13;;;6.23;;
13461;SDS011;6803;45.264;5.468;2022-11-15T12:19:37;7.97;;;6.17;;
13461;SDS011;6803;45.264;5.468;2022-11-15T12:22:10;11.30;;;6.20;;
13461;SDS011;6803;45.264;5.468;2022-11-15T12:24:44;7.57;;;6.33;;
13461;SDS011;6803;45.264;5.468;2022-11-15T12:27:18;7.63;;;6.43;;
13461;SDS011;6803;45.264;5.468;2022-11-15T12:29:54;7.70;;;6.27;;
13461;SDS011;6803;45.264;5.468;2022-11-15T12:32:28;9.57;;;5.67;;
13461;SDS011;6803;45.264;5.468;2022-11-15T12:35:03;9.60;;;6.00;;
13461;SDS011;6803;45.264;5.468;2022-11-15T12:40:32;9.70;;;6.43;;
13461;SDS011;6803;45.264;5.468;2022-11-15T12:46:19;6.70;;;5.87;;
13461;SDS011;6803;45.264;5.468;2022-11-15T12:48:51;6.27;;;5.17;;
13461;SDS011;6803;45.264;5.468;2022-11-15T12:54:50;6.47;;;5.40;;
13461;SDS011;6803;45.264;5.468;2022-11-15T12:57:41;10.33;;;4.90;;
13461;SDS011;6803;45.264;5.468;2022-11-15T13:03:21;6.10;;;5.07;;
13461;SDS011;6803;45.264;5.468;2022-11-15T13:06:05;5.87;;;5.23;;
13461;SDS011;6803;45.264;5.468;2022-11-15T13:08:48;5.30;;;4.80;;
13461;SDS011;6803;45.264;5.468;2022-11-15T13:14:39;4.73;;;4.23;;
13461;SDS011;6803;45.264;5.468;2022-11-15T13:20:24;5.93;;;5.13;;
13461;SDS011;6803;45.264;5.468;2022-11-15T13:23:02;5.27;;;4.53;;
13461;SDS011;6803;45.264;5.468;2022-11-15T13:25:48;9.50;;;5.23;;
13461;SDS011;6803;45.264;5.468;2022-11-15T13:28:30;5.93;;;4.70;;
13461;SDS011;6803;45.264;5.468;2022-11-15T13:31:13;7.27;;;5.60;;
13461;SDS011;6803;45.264;5.468;2022-11-15T13:33:49;9.87;;;5.70;;
13461;SDS011;6803;45.264;5.468;2022-11-15T13:36:21;6.33;;;5.30;;
13461;SDS011;6803;45.264;5.468;2022-11-15T13:39:00;6.20;;;5.57;;
13461;SDS011;6803;45.264;5.468;2022-11-15T13:41:33;5.27;;;4.77;;
13461;SDS011;6803;45.264;5.468;2022-11-15T13:44:17;7.27;;;5.67;;
13461;SDS011;6803;45.264;5.468;2022-11-15T13:46:49;7.93;;;5.77;;
13461;SDS011;6803;45.264;5.468;2022-11-15T13:49:32;10.67;;;5.80;;
13461;SDS011;6803;45.264;5.468;2022-11-15T13:52:05;7.37;;;5.93;;
13461;SDS011;6803;45.264;5.468;2022-11-15T13:54:38;6.13;;;5.53;;
13461;SDS011;6803;45.264;5.468;2022-11-15T13:57:12;9.27;;;6.33;;
13461;SDS011;6803;45.264;5.468;2022-11-15T13:59:45;6.63;;;5.70;;
13461;SDS011;6803;45.264;5.468;2022-11-15T14:02:19;6.37;;;5.57;;
13461;SDS011;6803;45.264;5.468;2022-11-15T14:04:53;7.33;;;5.30;;
13461;SDS011;6803;45.264;5.468;2022-11-15T14:07:26;9.80;;;6.10;;
13461;SDS011;6803;45.264;5.468;2022-11-15T14:09:57;7.20;;;5.40;;
13461;SDS011;6803;45.264;5.468;2022-11-15T14:12:30;6.43;;;5.47;;
13461;SDS011;6803;45.264;5.468;2022-11-15T14:15:17;6.97;;;5.83;;
13461;SDS011;6803;45.264;5.468;2022-11-15T14:17:51;6.47;;;5.77;;
13461;SDS011;6803;45.264;5.468;2022-11-15T14:20:29;9.63;;;5.60;;
13461;SDS011;6803;45.264;5.468;2022-11-15T14:23:02;7.83;;;6.10;;
13461;SDS011;6803;45.264;5.468;2022-11-15T14:25:34;7.27;;;5.70;;
13461;SDS011;6803;45.264;5.468;2022-11-15T14:31:10;7.07;;;5.70;;
13461;SDS011;6803;45.264;5.468;2022-11-15T14:33:41;8.63;;;6.00;;
13461;SDS011;6803;45.264;5.468;2022-11-15T14:36:12;7.23;;;5.33;;
13461;SDS011;6803;45.264;5.468;2022-11-15T14:38:44;10.00;;;6.10;;
13461;SDS011;6803;45.264;5.468;2022-11-15T14:41:20;5.57;;;4.50;;
13461;SDS011;6803;45.264;5.468;2022-11-15T14:43:52;5.30;;;4.63;;
13461;SDS011;6803;45.264;5.468;2022-11-15T14:46:23;9.03;;;4.97;;
13461;SDS011;6803;45.264;5.468;2022-11-15T14:48:53;8.20;;;5.83;;
13461;SDS011;6803;45.264;5.468;2022-11-15T14:51:24;7.27;;;5.57;;
13461;SDS011;6803;45.264;5.468;2022-11-15T14:53:54;8.83;;;6.00;;
13461;SDS011;6803;45.264;5.468;2022-11-15T14:56:25;9.13;;;6.20;;
13461;SDS011;6803;45.264;5.468;2022-11-15T14:58:56;8.80;;;5.97;;
13461;SDS011;6803;45.264;5.468;2022-11-15T15:01:26;7.53;;;6.27;;
13461;SDS011;6803;45.264;5.468;2022-11-15T15:03:57;10.63;;;6.30;;
13461;SDS011;6803;45.264;5.468;2022-11-15T15:06:28;8.47;;;6.67;;
13461;SDS011;6803;45.264;5.468;2022-11-15T15:08:59;6.77;;;5.77;;
13461;SDS011;6803;45.264;5.468;2022-11-15T15:11:30;7.43;;;6.57;;
13461;SDS011;6803;45.264;5.468;2022-11-15T15:14:01;7.63;;;5.40;;
13461;SDS011;6803;45.264;5.468;2022-11-15T15:16:31;9.93;;;5.87;;
13461;SDS011;6803;45.264;5.468;2022-11-15T15:19:02;6.87;;;5.00;;
13461;SDS011;6803;45.264;5.468;2022-11-15T15:21:32;9.07;;;5.73;;
13461;SDS011;6803;45.264;5.468;2022-11-15T15:24:04;10.73;;;6.87;;
13461;SDS011;6803;45.264;5.468;2022-11-15T15:26:38;8.87;;;6.60;;
13461;SDS011;6803;45.264;5.468;2022-11-15T15:29:18;8.87;;;5.67;;
13461;SDS011;6803;45.264;5.468;2022-11-15T15:31:48;11.50;;;6.10;;
13461;SDS011;6803;45.264;5.468;2022-11-15T15:34:19;10.90;;;5.80;;
13461;SDS011;6803;45.264;5.468;2022-11-15T15:36:50;6.57;;;5.03;;
13461;SDS011;6803;45.264;5.468;2022-11-15T15:39:36;8.33;;;6.03;;
13461;SDS011;6803;45.264;5.468;2022-11-15T15:42:06;13.33;;;8.20;;
13461;SDS011;6803;45.264;5.468;2022-11-15T15:44:37;9.87;;;7.40;;
13461;SDS011;6803;45.264;5.468;2022-11-15T15:47:09;9.43;;;6.93;;
13461;SDS011;6803;45.264;5.468;2022-11-15T15:49:41;10.83;;;7.00;;
13461;SDS011;6803;45.264;5.468;2022-11-15T15:52:11;8.40;;;5.57;;
13461;SDS011;6803;45.264;5.468;2022-11-15T15:54:42;9.27;;;6.03;;
13461;SDS011;6803;45.264;5.468;2022-11-15T15:57:13;17.47;;;6.73;;
13461;SDS011;6803;45.264;5.468;2022-11-15T15:59:44;10.37;;;6.23;;
13461;SDS011;6803;45.264;5.468;2022-11-15T16:02:14;9.97;;;5.97;;
13461;SDS011;6803;45.264;5.468;2022-11-15T16:04:45;8.10;;;6.07;;
13461;SDS011;6803;45.264;5.468;2022-11-15T16:07:16;10.77;;;6.73;;
13461;SDS011;6803;45.264;5.468;2022-11-15T16:09:49;9.67;;;6.27;;
13461;SDS011;6803;45.264;5.468;2022-11-15T16:12:29;11.67;;;7.13;;
13461;SDS011;6803;45.264;5.468;2022-11-15T16:15:01;9.83;;;7.40;;